sensor_id;sensor_type;location;lat;lon;timestamp;P1;durP1;ratioP1;P2;durP2;ratioP2
80963;SDS011;70425;59.322;13.486;2024-01-30T00:05:27;137.10;;;14.53;;
80963;SDS011;70425;59.322;13.486;2024-01-30T00:39:15;198.27;;;20.30;;
80963;SDS011;70425;59.322;13.486;2024-01-30T00:46:11;172.70;;;13.13;;
80963;SDS011;70425;59.322;13.486;2024-01-30T00:49:00;157.10;;;12.80;;
80963;SDS011;70425;59.322;13.486;2024-01-30T00:51:49;106.53;;;11.07;;
80963;SDS011;70425;59.322;13.486;2024-01-30T00:54:39;107.40;;;10.30;;
80963;SDS011;70425;59.322;13.486;2024-01-30T00:57:30;109.37;;;11.40;;
80963;SDS011;70425;59.322;13.486;2024-01-30T01:00:19;92.83;;;10.30;;
80963;SDS011;70425;59.322;13.486;2024-01-30T02:43:23;74.43;;;11.43;;
80963;SDS011;70425;59.322;13.486;2024-01-30T02:46:15;70.83;;;10.50;;
80963;SDS011;70425;59.322;13.486;2024-01-30T02:49:06;69.87;;;9.97;;
80963;SDS011;70425;59.322;13.486;2024-01-30T02:52:00;78.17;;;10.13;;
80963;SDS011;70425;59.322;13.486;2024-01-30T02:54:51;33.80;;;9.37;;
80963;SDS011;70425;59.322;13.486;2024-01-30T02:57:42;91.63;;;12.13;;
80963;SDS011;70425;59.322;13.486;2024-01-30T03:00:37;78.40;;;10.60;;
80963;SDS011;70425;59.322;13.486;2024-01-30T03:03:29;89.47;;;13.20;;
80963;SDS011;70425;59.322;13.486;2024-01-30T03:06:23;83.27;;;10.73;;
80963;SDS011;70425;59.322;13.486;2024-01-30T03:18:55;80.43;;;13.27;;
80963;SDS011;70425;59.322;13.486;2024-01-30T03:21:51;80.07;;;11.30;;
80963;SDS011;70425;59.322;13.486;2024-01-30T03:24:44;76.00;;;10.80;;
80963;SDS011;70425;59.322;13.486;2024-01-30T03:27:35;56.73;;;9.73;;
80963;SDS011;70425;59.322;13.486;2024-01-30T03:30:29;61.87;;;10.77;;
80963;SDS011;70425;59.322;13.486;2024-01-30T03:33:25;62.73;;;10.47;;
80963;SDS011;70425;59.322;13.486;2024-01-30T03:36:20;88.87;;;11.50;;
80963;SDS011;70425;59.322;13.486;2024-01-30T03:39:15;68.63;;;10.50;;
80963;SDS011;70425;59.322;13.486;2024-01-30T03:46:08;61.87;;;9.47;;
80963;SDS011;70425;59.322;13.486;2024-01-30T03:48:58;58.70;;;9.50;;
80963;SDS011;70425;59.322;13.486;2024-01-30T03:51:50;55.27;;;10.67;;
80963;SDS011;70425;59.322;13.486;2024-01-30T03:54:50;61.13;;;10.47;;
80963;SDS011;70425;59.322;13.486;2024-01-30T03:57:40;80.47;;;10.80;;
80963;SDS011;70425;59.322;13.486;2024-01-30T04:00:31;50.80;;;10.30;;
80963;SDS011;70425;59.322;13.486;2024-01-30T04:03:21;60.03;;;10.27;;
80963;SDS011;70425;59.322;13.486;2024-01-30T04:20:01;114.73;;;16.03;;
80963;SDS011;70425;59.322;13.486;2024-01-30T04:25:39;110.00;;;15.30;;
80963;SDS011;70425;59.322;13.486;2024-01-30T04:28:28;72.67;;;11.83;;
80963;SDS011;70425;59.322;13.486;2024-01-30T04:31:18;97.93;;;13.50;;
80963;SDS011;70425;59.322;13.486;2024-01-30T04:34:08;116.57;;;12.10;;
80963;SDS011;70425;59.322;13.486;2024-01-30T04:36:57;92.30;;;12.13;;
80963;SDS011;70425;59.322;13.486;2024-01-30T04:43:36;103.30;;;11.87;;
80963;SDS011;70425;59.322;13.486;2024-01-30T04:46:26;83.97;;;9.27;;
80963;SDS011;70425;59.322;13.486;2024-01-30T04:49:15;82.23;;;10.30;;
80963;SDS011;70425;59.322;13.486;2024-01-30T04:52:05;52.90;;;8.87;;
80963;SDS011;70425;59.322;13.486;2024-01-30T05:12:47;47.53;;;7.73;;
80963;SDS011;70425;59.322;13.486;2024-01-30T05:23:05;74.17;;;8.13;;
80963;SDS011;70425;59.322;13.486;2024-01-30T05:25:56;73.13;;;10.10;;
80963;SDS011;70425;59.322;13.486;2024-01-30T05:28:46;72.03;;;8.93;;
80963;SDS011;70425;59.322;13.486;2024-01-30T05:31:35;104.10;;;10.57;;
80963;SDS011;70425;59.322;13.486;2024-01-30T05:34:25;64.60;;;8.13;;
80963;SDS011;70425;59.322;13.486;2024-01-30T05:37:17;89.87;;;10.27;;
80963;SDS011;70425;59.322;13.486;2024-01-30T05:40:07;85.03;;;11.80;;
80963;SDS011;70425;59.322;13.486;2024-01-30T05:42:57;71.37;;;9.23;;
80963;SDS011;70425;59.322;13.486;2024-01-30T05:45:48;137.33;;;11.27;;
80963;SDS011;70425;59.322;13.486;2024-01-30T05:48:38;140.17;;;12.00;;
80963;SDS011;70425;59.322;13.486;2024-01-30T16:18:00;15.57;;;6.40;;
80963;SDS011;70425;59.322;13.486;2024-01-30T16:24:59;14.87;;;6.20;;
